createdAt,value
2023-01-18T00:00:10.719Z,2.13
2023-01-18T00:02:41.349Z,2.10
2023-01-18T00:05:13.159Z,2.17
2023-01-18T00:07:43.792Z,2.10
2023-01-18T00:10:17.451Z,1.85
2023-01-18T00:12:48.410Z,1.60
2023-01-18T00:15:19.672Z,1.88
2023-01-18T00:17:54.562Z,2.00
2023-01-18T00:20:27.528Z,2.42
2023-01-18T00:22:58.733Z,2.25
2023-01-18T00:25:33.401Z,3.50
2023-01-18T00:28:04.167Z,2.22
2023-01-18T00:30:34.806Z,2.28
2023-01-18T00:33:05.278Z,2.85
2023-01-18T00:35:35.942Z,1.77
2023-01-18T00:38:06.665Z,2.70
2023-01-18T00:40:39.867Z,2.80
2023-01-18T00:43:24.403Z,2.00
2023-01-18T00:45:55.045Z,2.10
2023-01-18T00:48:25.581Z,2.70
2023-01-18T00:50:56.220Z,2.08
2023-01-18T00:53:26.766Z,2.30
2023-01-18T00:56:00.164Z,2.50
2023-01-18T00:58:31.365Z,2.70
2023-01-18T01:01:02.079Z,2.42
2023-01-18T01:03:52.612Z,2.38
2023-01-18T01:06:40.761Z,2.20
2023-01-18T01:09:11.402Z,3.38
2023-01-18T01:12:05.307Z,2.78
2023-01-18T01:14:49.214Z,2.22
2023-01-18T01:17:32.839Z,2.28
2023-01-18T01:20:15.593Z,2.40
2023-01-18T01:22:58.922Z,2.08
2023-01-18T01:25:41.972Z,1.77
2023-01-18T01:28:15.165Z,2.13
2023-01-18T01:30:45.727Z,2.63
2023-01-18T01:33:16.801Z,2.00
2023-01-18T01:35:47.360Z,3.17
2023-01-18T01:38:17.980Z,3.22
2023-01-18T01:40:58.193Z,4.70
2023-01-18T01:43:47.906Z,2.30
2023-01-18T01:46:45.592Z,1.83
2023-01-18T01:49:20.578Z,2.17
2023-01-18T01:51:55.386Z,2.13
2023-01-18T01:54:31.501Z,1.92
2023-01-18T01:57:06.268Z,2.08
2023-01-18T01:59:43.479Z,1.70
2023-01-18T02:02:14.756Z,1.85
2023-01-18T02:04:46.707Z,1.80
2023-01-18T02:07:17.334Z,2.85
2023-01-18T02:09:51.247Z,1.88
2023-01-18T02:12:22.518Z,1.83
2023-01-18T02:14:57.690Z,1.80
2023-01-18T02:17:41.188Z,1.85
2023-01-18T02:20:38.395Z,1.50
2023-01-18T02:23:38.624Z,1.90
2023-01-18T02:26:29.768Z,2.05
2023-01-18T02:29:09.889Z,2.40
2023-01-18T02:31:45.767Z,2.40
2023-01-18T02:34:23.997Z,2.83
2023-01-18T02:37:04.988Z,2.03
2023-01-18T02:39:41.795Z,2.10
2023-01-18T02:42:33.324Z,2.05
2023-01-18T02:45:22.987Z,2.08
2023-01-18T02:47:55.167Z,1.90
2023-01-18T02:50:29.192Z,2.60
2023-01-18T02:53:00.075Z,1.77
2023-01-18T02:55:38.719Z,2.03
2023-01-18T02:58:15.848Z,2.42
2023-01-18T03:00:54.254Z,2.10
2023-01-18T03:03:26.267Z,2.50
2023-01-18T03:06:02.349Z,2.22
2023-01-18T03:08:39.144Z,2.05
2023-01-18T03:11:15.141Z,2.20
2023-01-18T03:14:01.050Z,2.13
2023-01-18T03:19:29.695Z,3.13
2023-01-18T03:22:00.623Z,2.65
2023-01-18T03:24:30.725Z,2.13
2023-01-18T03:27:14.988Z,2.30
2023-01-18T03:29:58.411Z,2.38
2023-01-18T03:32:43.993Z,2.35
2023-01-18T03:35:18.714Z,2.65
2023-01-18T03:37:54.437Z,2.60
2023-01-18T03:40:30.416Z,1.95
2023-01-18T03:43:06.621Z,2.75
2023-01-18T03:45:41.883Z,2.88
2023-01-18T03:48:15.947Z,2.20
2023-01-18T03:50:52.719Z,2.15
2023-01-18T03:53:33.857Z,2.38
2023-01-18T03:56:10.012Z,2.40
2023-01-18T03:58:42.431Z,2.40
2023-01-18T04:01:13.333Z,2.25
2023-01-18T04:03:46.697Z,2.35
2023-01-18T04:06:17.735Z,2.47
2023-01-18T04:08:48.161Z,2.33
2023-01-18T04:11:18.782Z,2.22
2023-01-18T04:13:49.397Z,1.80
2023-01-18T04:16:20.071Z,2.45
2023-01-18T04:18:53.229Z,2.25
2023-01-18T04:21:24.131Z,2.45
2023-01-18T04:23:54.699Z,3.20
2023-01-18T04:26:25.511Z,2.38
2023-01-18T04:28:56.151Z,2.38
2023-01-18T04:31:27.097Z,2.80
2023-01-18T04:34:00.432Z,2.40
2023-01-18T04:36:31.856Z,2.38
2023-01-18T04:39:02.524Z,2.35
2023-01-18T04:41:33.255Z,2.40
2023-01-18T04:44:03.899Z,3.22
2023-01-18T04:46:34.858Z,3.58
2023-01-18T04:49:08.638Z,2.30
2023-01-18T04:51:41.410Z,2.55
2023-01-18T04:54:11.961Z,2.28
2023-01-18T04:56:42.736Z,2.95
2023-01-18T04:59:18.061Z,3.13
2023-01-18T05:01:48.738Z,2.97
2023-01-18T05:04:22.054Z,2.95
2023-01-18T05:06:52.675Z,2.75
2023-01-18T05:09:23.198Z,2.92
2023-01-18T05:11:53.796Z,2.70
2023-01-18T05:14:24.270Z,2.85
2023-01-18T05:16:54.946Z,3.35
2023-01-18T05:19:30.281Z,4.13
2023-01-18T05:22:01.081Z,3.17
2023-01-18T05:24:31.640Z,2.80
2023-01-18T05:27:02.488Z,4.63
2023-01-18T05:29:32.975Z,2.55
2023-01-18T05:32:03.590Z,2.97
2023-01-18T05:34:39.745Z,2.70
2023-01-18T05:37:10.340Z,2.70
2023-01-18T05:39:40.841Z,2.90
2023-01-18T05:42:11.608Z,3.15
2023-01-18T05:44:42.311Z,2.55
2023-01-18T05:47:12.966Z,2.25
2023-01-18T05:49:46.318Z,4.25
2023-01-18T05:52:17.261Z,3.47
2023-01-18T05:54:48.087Z,5.28
2023-01-18T05:57:18.655Z,2.38
2023-01-18T05:59:49.189Z,2.50
2023-01-18T06:02:19.912Z,2.80
2023-01-18T06:04:52.984Z,2.83
2023-01-18T06:07:23.576Z,2.80
2023-01-18T06:09:54.235Z,3.92
2023-01-18T06:12:24.856Z,2.83
2023-01-18T06:14:55.400Z,3.50
2023-01-18T06:17:26.148Z,2.97
2023-01-18T06:20:00.248Z,3.38
2023-01-18T06:22:31.001Z,3.15
2023-01-18T06:25:01.628Z,2.70
2023-01-18T06:27:33.665Z,2.90
2023-01-18T06:30:05.376Z,2.83
2023-01-18T06:32:36.194Z,3.53
2023-01-18T06:35:10.365Z,3.33
2023-01-18T06:37:40.838Z,4.70
2023-01-18T06:40:13.185Z,4.15
2023-01-18T06:42:44.400Z,3.88
2023-01-18T06:45:16.503Z,3.10
2023-01-18T06:47:47.015Z,3.53
2023-01-18T06:50:21.186Z,3.30
2023-01-18T06:52:52.067Z,3.55
2023-01-18T06:55:22.717Z,3.33
2023-01-18T06:57:53.529Z,3.03
2023-01-18T07:00:25.302Z,2.65
2023-01-18T07:02:56.899Z,3.17
2023-01-18T07:05:30.367Z,3.03
2023-01-18T07:08:03.515Z,2.80
2023-01-18T07:10:34.164Z,2.90
2023-01-18T07:13:04.698Z,3.20
2023-01-18T07:15:35.329Z,3.53
2023-01-18T07:18:05.897Z,2.38
2023-01-18T07:20:39.264Z,2.60
2023-01-18T07:23:09.925Z,3.72
2023-01-18T07:25:40.513Z,4.45
2023-01-18T07:28:11.042Z,3.85
2023-01-18T07:30:41.662Z,3.85
2023-01-18T07:33:12.121Z,3.75
2023-01-18T07:35:45.315Z,3.30
2023-01-18T07:38:15.864Z,3.85
2023-01-18T07:40:46.999Z,3.60
2023-01-18T07:43:18.521Z,3.35
2023-01-18T07:45:58.049Z,3.13
2023-01-18T07:48:29.583Z,2.65
2023-01-18T07:51:04.383Z,2.92
2023-01-18T07:53:36.839Z,3.95
2023-01-18T07:56:10.072Z,2.47
2023-01-18T07:58:40.888Z,2.53
2023-01-18T08:01:13.476Z,3.70
2023-01-18T08:03:45.324Z,4.93
2023-01-18T08:06:22.616Z,5.10
2023-01-18T08:08:53.565Z,4.55
2023-01-18T08:11:24.375Z,4.10
2023-01-18T08:13:54.954Z,2.80
2023-01-18T08:16:27.038Z,2.63
2023-01-18T08:18:57.588Z,3.10
2023-01-18T08:21:32.144Z,3.53
2023-01-18T08:24:02.811Z,3.53
2023-01-18T08:26:34.751Z,3.53
2023-01-18T08:29:05.324Z,2.65
2023-01-18T08:31:36.028Z,3.00
2023-01-18T08:34:06.561Z,2.75
2023-01-18T08:36:40.233Z,4.40
2023-01-18T08:39:10.789Z,3.28
2023-01-18T08:41:42.170Z,2.80
2023-01-18T08:44:12.642Z,3.03
2023-01-18T08:46:43.290Z,2.97
2023-01-18T08:49:14.356Z,2.17
2023-01-18T08:51:47.653Z,2.38
2023-01-18T08:54:18.139Z,2.70
2023-01-18T08:56:48.803Z,3.38
2023-01-18T08:59:20.161Z,2.88
2023-01-18T09:01:50.880Z,2.75
2023-01-18T09:04:23.117Z,2.42
2023-01-18T09:06:56.392Z,2.97
2023-01-18T09:09:26.937Z,2.80
2023-01-18T09:11:58.489Z,2.83
2023-01-18T09:14:29.098Z,2.47
2023-01-18T09:16:59.781Z,2.92
2023-01-18T09:19:30.401Z,2.40
2023-01-18T09:22:03.874Z,2.42
2023-01-18T09:24:34.617Z,2.83
2023-01-18T09:27:06.008Z,3.67
2023-01-18T09:29:36.746Z,2.78
2023-01-18T09:32:08.482Z,3.17
2023-01-18T09:34:39.426Z,4.53
2023-01-18T09:37:12.639Z,3.58
2023-01-18T09:39:51.488Z,19.95
2023-01-18T09:42:25.600Z,20.85
2023-01-18T09:45:00.085Z,5.07
2023-01-18T09:47:36.923Z,3.60
2023-01-18T09:50:17.629Z,2.15
2023-01-18T09:53:01.652Z,2.38
2023-01-18T09:55:42.364Z,2.58
2023-01-18T09:58:41.831Z,2.53
2023-01-18T10:01:17.248Z,2.28
2023-01-18T10:03:54.832Z,2.95
2023-01-18T10:06:30.197Z,1.92
2023-01-18T10:09:06.872Z,2.35
2023-01-18T10:11:45.168Z,2.72
2023-01-18T10:14:22.481Z,2.58
2023-01-18T10:16:58.128Z,2.78
2023-01-18T10:19:32.795Z,3.80
2023-01-18T10:22:08.938Z,2.50
2023-01-18T10:25:05.456Z,1.98
2023-01-18T10:28:01.087Z,3.10
2023-01-18T10:30:44.039Z,2.28
2023-01-18T10:33:21.500Z,2.33
2023-01-18T10:35:55.633Z,1.85
2023-01-18T10:38:29.228Z,2.05
2023-01-18T10:41:04.636Z,2.05
2023-01-18T10:43:35.246Z,2.13
2023-01-18T10:46:05.923Z,2.15
2023-01-18T10:48:39.009Z,2.05
2023-01-18T10:51:10.232Z,2.95
2023-01-18T10:53:41.975Z,2.17
2023-01-18T10:56:21.651Z,1.90
2023-01-18T10:58:58.922Z,2.03
2023-01-18T11:01:31.908Z,1.98
2023-01-18T11:04:06.309Z,2.40
2023-01-18T11:06:48.565Z,1.88
2023-01-18T11:09:48.695Z,2.38
2023-01-18T11:12:42.265Z,2.05
2023-01-18T11:15:32.630Z,2.33
2023-01-18T11:18:12.272Z,2.03
2023-01-18T11:20:48.995Z,2.35
2023-01-18T11:23:26.385Z,2.50
2023-01-18T11:26:02.640Z,1.70
2023-01-18T11:28:40.546Z,2.38
2023-01-18T11:31:18.201Z,1.20
2023-01-18T11:33:54.818Z,1.80
2023-01-18T11:36:38.951Z,1.98
2023-01-18T11:39:28.499Z,2.00
2023-01-18T11:42:17.333Z,1.90
2023-01-18T11:45:01.092Z,1.23
2023-01-18T11:47:40.815Z,1.20
2023-01-18T11:50:31.459Z,1.63
2023-01-18T11:53:13.564Z,1.50
2023-01-18T11:55:56.148Z,1.73
2023-01-18T11:58:29.560Z,1.55
2023-01-18T12:01:22.960Z,2.50
2023-01-18T12:03:59.821Z,4.75
2023-01-18T12:06:41.915Z,2.10
2023-01-18T12:09:23.662Z,2.55
2023-01-18T12:12:18.383Z,1.40
2023-01-18T12:15:08.157Z,4.10
2023-01-18T12:18:11.379Z,2.00
2023-01-18T12:20:53.047Z,2.20
2023-01-18T12:23:52.449Z,1.63
2023-01-18T12:26:45.396Z,1.70
2023-01-18T12:29:48.814Z,1.33
2023-01-18T12:32:36.398Z,1.40
2023-01-18T12:35:29.393Z,1.27
2023-01-18T12:38:11.447Z,4.20
2023-01-18T12:40:57.384Z,3.22
2023-01-18T12:43:48.971Z,1.50
2023-01-18T12:46:24.844Z,1.63
2023-01-18T12:48:59.593Z,3.13
2023-01-18T12:51:36.134Z,2.55
2023-01-18T12:54:28.562Z,3.05
2023-01-18T12:57:14.713Z,1.92
2023-01-18T13:00:10.623Z,1.55
2023-01-18T13:03:14.525Z,1.60
2023-01-18T13:06:18.668Z,2.03
2023-01-18T13:09:18.767Z,2.00
2023-01-18T13:12:09.542Z,2.97
2023-01-18T13:15:19.637Z,2.10
2023-01-18T13:18:30.564Z,1.50
2023-01-18T13:21:47.595Z,2.00
2023-01-18T13:25:23.547Z,2.25
2023-01-18T13:28:33.575Z,1.60
2023-01-18T13:31:46.657Z,1.90
2023-01-18T13:35:08.872Z,2.05
2023-01-18T13:38:40.685Z,2.40
2023-01-18T13:41:47.617Z,1.90
2023-01-18T13:44:56.636Z,2.00
2023-01-18T13:48:09.647Z,1.92
2023-01-18T13:51:13.624Z,2.15
2023-01-18T13:54:16.607Z,2.58
2023-01-18T13:57:19.791Z,2.35
2023-01-18T13:59:54.930Z,2.65
2023-01-18T14:02:32.336Z,2.10
2023-01-18T14:05:07.497Z,2.78
2023-01-18T14:07:44.667Z,3.13
2023-01-18T14:10:30.633Z,9.23
2023-01-18T14:13:05.356Z,2.80
2023-01-18T14:15:52.714Z,2.83
2023-01-18T14:18:28.935Z,3.20
2023-01-18T14:21:26.264Z,3.28
2023-01-18T14:24:22.698Z,2.90
2023-01-18T14:26:58.489Z,3.40
2023-01-18T14:29:37.204Z,7.82
2023-01-18T14:32:11.874Z,2.97
2023-01-18T14:34:43.704Z,3.67
2023-01-18T14:37:29.039Z,4.15
2023-01-18T14:40:21.707Z,3.22
2023-01-18T14:42:55.969Z,5.78
2023-01-18T14:45:32.773Z,3.35
2023-01-18T14:48:05.726Z,3.35
2023-01-18T14:50:41.629Z,2.88
2023-01-18T14:53:19.785Z,5.10
2023-01-18T14:56:09.235Z,3.25
2023-01-18T14:58:42.392Z,2.78
2023-01-18T15:01:28.924Z,2.83
2023-01-18T15:04:02.177Z,3.13
2023-01-18T15:06:43.943Z,3.10
2023-01-18T15:09:15.837Z,3.72
2023-01-18T15:11:47.328Z,3.42
2023-01-18T15:14:21.913Z,3.47
2023-01-18T15:16:58.930Z,4.18
2023-01-18T15:19:37.213Z,3.92
2023-01-18T15:22:08.613Z,4.35
2023-01-18T15:24:42.918Z,3.80
2023-01-18T15:27:16.969Z,3.70
2023-01-18T15:29:51.339Z,3.58
2023-01-18T15:32:26.827Z,3.65
2023-01-18T15:34:59.734Z,4.50
2023-01-18T15:37:32.751Z,3.28
2023-01-18T15:40:04.570Z,4.20
2023-01-18T15:42:40.615Z,3.83
2023-01-18T15:45:21.726Z,4.30
2023-01-18T15:47:57.985Z,4.15
2023-01-18T15:50:32.738Z,6.35
2023-01-18T15:53:06.297Z,4.35
2023-01-18T15:55:41.117Z,4.80
2023-01-18T15:58:17.546Z,6.20
2023-01-18T16:00:57.853Z,5.40
2023-01-18T16:03:34.303Z,5.45
2023-01-18T16:06:13.368Z,5.15
2023-01-18T16:08:59.794Z,5.20
2023-01-18T16:11:33.928Z,5.35
2023-01-18T16:14:07.816Z,5.43
2023-01-18T16:16:42.306Z,5.15
2023-01-18T16:19:28.690Z,7.43
2023-01-18T16:22:02.853Z,6.07
2023-01-18T16:24:37.802Z,5.03
2023-01-18T16:27:14.908Z,5.20
2023-01-18T16:29:51.133Z,6.07
2023-01-18T16:32:34.689Z,5.25
2023-01-18T16:35:17.624Z,5.88
2023-01-18T16:37:51.263Z,5.97
2023-01-18T16:40:24.751Z,5.60
2023-01-18T16:43:01.469Z,5.57
2023-01-18T16:45:33.824Z,6.97
2023-01-18T16:48:04.713Z,5.40
2023-01-18T16:50:37.975Z,6.20
2023-01-18T16:53:08.739Z,6.40
2023-01-18T16:55:39.594Z,6.20
2023-01-18T16:58:10.447Z,5.70
2023-01-18T17:00:53.104Z,6.28
2023-01-18T17:03:23.979Z,7.68
2023-01-18T17:05:57.638Z,6.25
2023-01-18T17:08:28.667Z,5.97
2023-01-18T17:10:59.541Z,7.10
2023-01-18T17:13:30.217Z,7.15
2023-01-18T17:16:01.182Z,7.18
2023-01-18T17:18:32.125Z,7.07
2023-01-18T17:21:05.504Z,7.93
2023-01-18T17:23:36.259Z,7.88
2023-01-18T17:26:06.937Z,7.13
2023-01-18T17:28:37.863Z,8.75
2023-01-18T17:31:08.817Z,8.05
2023-01-18T17:33:40.660Z,7.60
2023-01-18T17:36:14.671Z,8.48
2023-01-18T17:38:45.412Z,9.13
2023-01-18T17:41:26.696Z,7.25
2023-01-18T17:43:58.407Z,8.63
2023-01-18T17:46:29.350Z,6.82
2023-01-18T17:49:00.291Z,7.78
2023-01-18T17:51:35.490Z,8.00
2023-01-18T17:54:13.147Z,8.45
2023-01-18T17:56:51.341Z,9.23
2023-01-18T17:59:22.318Z,8.68
2023-01-18T18:01:53.446Z,9.02
2023-01-18T18:04:24.209Z,7.75
2023-01-18T18:06:58.754Z,7.30
2023-01-18T18:09:30.049Z,6.93
2023-01-18T18:12:00.848Z,7.72
2023-01-18T18:14:34.442Z,7.70
2023-01-18T18:17:05.055Z,7.80
2023-01-18T18:19:36.415Z,8.48
2023-01-18T18:22:09.570Z,8.32
2023-01-18T18:24:40.570Z,7.22
2023-01-18T18:27:11.225Z,7.47
2023-01-18T18:29:41.962Z,10.18
2023-01-18T18:32:13.678Z,10.02
2023-01-18T18:34:44.437Z,8.75
2023-01-18T18:37:20.065Z,9.65
2023-01-18T18:39:50.657Z,8.60
2023-01-18T18:42:21.221Z,8.80
2023-01-18T18:44:52.049Z,8.32
2023-01-18T18:47:22.951Z,8.02
2023-01-18T18:49:53.650Z,9.50
2023-01-18T18:52:27.144Z,7.88
2023-01-18T18:54:57.949Z,8.40
2023-01-18T18:57:29.634Z,9.15
2023-01-18T19:00:00.600Z,8.57
2023-01-18T19:02:31.700Z,8.60
2023-01-18T19:05:02.483Z,8.48
2023-01-18T19:07:38.037Z,8.93
2023-01-18T19:10:11.682Z,9.97
2023-01-18T19:12:44.113Z,9.65
2023-01-18T19:15:15.207Z,9.52
2023-01-18T19:17:46.790Z,8.68
2023-01-18T19:20:19.884Z,9.63
2023-01-18T19:22:54.112Z,8.13
2023-01-18T19:25:25.120Z,9.05
2023-01-18T19:27:56.629Z,9.98
2023-01-18T19:30:27.781Z,7.90
2023-01-18T19:33:00.306Z,9.45
2023-01-18T19:35:31.816Z,8.40
2023-01-18T19:38:06.742Z,8.70
2023-01-18T19:40:38.426Z,10.05
2023-01-18T19:43:10.047Z,8.13
2023-01-18T19:45:41.409Z,9.13
2023-01-18T19:48:12.408Z,7.97
2023-01-18T19:50:43.687Z,9.75
2023-01-18T19:53:17.557Z,8.88
2023-01-18T19:55:50.611Z,8.75
2023-01-18T19:58:23.754Z,10.30
2023-01-18T20:00:54.690Z,8.57
2023-01-18T20:03:25.563Z,8.30
2023-01-18T20:05:56.481Z,9.68
2023-01-18T20:08:29.828Z,9.35
2023-01-18T20:11:07.241Z,9.43
2023-01-18T20:13:39.882Z,9.23
2023-01-18T20:16:11.064Z,8.18
2023-01-18T20:18:42.280Z,7.47
2023-01-18T20:21:15.131Z,8.18
2023-01-18T20:23:49.124Z,8.00
2023-01-18T20:26:31.288Z,8.45
2023-01-18T20:29:07.222Z,7.93
2023-01-18T20:31:39.106Z,7.75
2023-01-18T20:34:11.143Z,8.05
2023-01-18T20:36:46.289Z,7.68
2023-01-18T20:39:20.954Z,8.32
2023-01-18T20:41:53.507Z,9.55
2023-01-18T20:44:25.233Z,7.35
2023-01-18T20:46:57.639Z,8.23
2023-01-18T20:49:43.521Z,7.18
2023-01-18T20:52:14.840Z,8.32
2023-01-18T20:54:48.336Z,6.80
2023-01-18T20:57:19.185Z,7.32
2023-01-18T20:59:50.305Z,8.15
2023-01-18T21:02:22.293Z,8.20
2023-01-18T21:04:53.194Z,6.53
2023-01-18T21:07:24.639Z,7.43
2023-01-18T21:09:58.027Z,7.20
2023-01-18T21:12:28.997Z,6.97
2023-01-18T21:15:00.333Z,7.63
2023-01-18T21:17:31.242Z,7.40
2023-01-18T21:20:02.003Z,7.03
2023-01-18T21:22:34.426Z,6.38
2023-01-18T21:25:08.914Z,8.13
2023-01-18T21:27:43.387Z,10.57
2023-01-18T21:30:15.795Z,7.93
2023-01-18T21:32:47.315Z,7.05
2023-01-18T21:35:19.133Z,5.55
2023-01-18T21:37:49.897Z,6.72
2023-01-18T21:40:23.336Z,6.78
2023-01-18T21:43:06.353Z,6.15
2023-01-18T21:45:49.159Z,6.32
2023-01-18T21:48:19.718Z,9.23
2023-01-18T21:51:02.590Z,7.50
2023-01-18T21:53:45.482Z,7.05
2023-01-18T21:56:18.605Z,5.95
2023-01-18T21:58:58.399Z,8.27
2023-01-18T22:01:34.695Z,6.32
2023-01-18T22:04:19.304Z,6.03
2023-01-18T22:06:50.250Z,6.30
2023-01-18T22:09:21.135Z,5.18
2023-01-18T22:11:55.266Z,5.82
2023-01-18T22:14:26.568Z,6.60
2023-01-18T22:16:57.232Z,6.03
2023-01-18T22:19:28.041Z,6.65
2023-01-18T22:21:58.894Z,5.38
2023-01-18T22:24:29.511Z,6.40
2023-01-18T22:27:02.694Z,6.75
2023-01-18T22:29:33.493Z,4.63
2023-01-18T22:32:04.296Z,5.35
2023-01-18T22:34:34.905Z,4.88
2023-01-18T22:37:06.214Z,5.25
2023-01-18T22:39:36.764Z,6.45
2023-01-18T22:42:09.955Z,6.13
2023-01-18T22:44:40.568Z,4.82
2023-01-18T22:47:11.087Z,5.90
2023-01-18T22:49:41.740Z,4.85
2023-01-18T22:52:12.333Z,6.57
2023-01-18T22:54:42.846Z,6.72
2023-01-18T22:57:16.276Z,6.80
2023-01-18T22:59:48.148Z,5.80
2023-01-18T23:02:18.647Z,6.35
2023-01-18T23:04:51.413Z,6.90
2023-01-18T23:07:22.079Z,6.45
2023-01-18T23:09:52.547Z,6.18
2023-01-18T23:12:25.713Z,5.47
2023-01-18T23:15:08.946Z,7.32
2023-01-18T23:17:43.380Z,6.22
2023-01-18T23:20:16.542Z,6.60
2023-01-18T23:22:47.639Z,6.43
2023-01-18T23:25:18.251Z,6.10
2023-01-18T23:27:51.418Z,5.80
2023-01-18T23:30:22.478Z,7.20
2023-01-18T23:32:52.987Z,7.00
2023-01-18T23:35:24.049Z,5.70
2023-01-18T23:37:54.601Z,6.43
2023-01-18T23:40:37.612Z,6.03
2023-01-18T23:43:23.026Z,6.60
2023-01-18T23:46:05.852Z,6.68
2023-01-18T23:48:48.607Z,8.45
2023-01-18T23:51:31.435Z,7.55
2023-01-18T23:54:19.032Z,7.32
2023-01-18T23:56:50.434Z,6.07
2023-01-18T23:59:25.958Z,7.72
